Time;durP1;ratioP1;P1;durP2;ratioP2;P2;SDS_P1;SDS_P2;PMS_P1;PMS_P2;Temp;Humidity;BMP_temperature;BMP_pressure;BME280_temperature;BME280_humidity;BME280_pressure;Samples;Min_cycle;Max_cycle;Signal;HPM_P1;HPM_P2
2022/12/03 00:01:23;;;;;;;23.33;11.82;;;;;;;;;;5103595;28;20020;-68
2022/12/03 00:03:48;;;;;;;37.58;17.48;;;;;;;;;;5099234;28;20028;-68
2022/12/03 00:06:14;;;;;;;36.17;14.85;;;;;;;;;;5109539;28;20119;-69
2022/12/03 00:08:39;;;;;;;26.65;13.27;;;;;;;;;;5096735;28;20419;-69
2022/12/03 00:11:04;;;;;;;27.42;12.02;;;;;;;;;;5108671;28;20028;-68
2022/12/03 00:13:30;;;;;;;35.97;16.90;;;;;;;;;;5112423;28;20497;-68
2022/12/03 00:15:55;;;;;;;15.57;9.10;;;;;;;;;;5100577;28;20028;-69
2022/12/03 00:18:21;;;;;;;32.35;15.18;;;;;;;;;;5102554;28;20062;-67
2022/12/03 00:20:47;;;;;;;25.33;11.63;;;;;;;;;;5112431;28;20500;-68
2022/12/03 00:23:12;;;;;;;33.78;16.08;;;;;;;;;;5105654;28;20076;-68
2022/12/03 00:25:38;;;;;;;31.98;16.08;;;;;;;;;;5103589;28;20111;-68
2022/12/03 00:28:03;;;;;;;21.50;10.50;;;;;;;;;;5113473;28;20469;-69
2022/12/03 00:30:29;;;;;;;32.50;13.80;;;;;;;;;;5111528;28;20023;-69
2022/12/03 00:32:54;;;;;;;33.58;16.02;;;;;;;;;;5098319;28;20023;-69
2022/12/03 00:35:20;;;;;;;36.47;15.68;;;;;;;;;;5104383;28;20079;-69
2022/12/03 00:37:45;;;;;;;33.45;15.20;;;;;;;;;;5104235;28;20474;-70
2022/12/03 00:40:11;;;;;;;23.63;12.13;;;;;;;;;;5113265;28;20450;-70
2022/12/03 00:42:37;;;;;;;26.65;14.10;;;;;;;;;;5095148;28;20034;-69
2022/12/03 00:45:03;;;;;;;31.42;12.43;;;;;;;;;;5108506;28;20023;-69
2022/12/03 00:47:28;;;;;;;16.60;9.07;;;;;;;;;;5106863;28;20020;-69
2022/12/03 00:49:54;;;;;;;22.23;11.40;;;;;;;;;;5112495;28;20420;-69
2022/12/03 00:52:19;;;;;;;35.17;16.50;;;;;;;;;;5112929;28;20076;-70
2022/12/03 00:54:45;;;;;;;37.53;16.00;;;;;;;;;;5112505;28;20545;-69
2022/12/03 00:57:10;;;;;;;31.90;15.23;;;;;;;;;;5112424;28;20016;-69
2022/12/03 00:59:36;;;;;;;38.60;16.55;;;;;;;;;;5112631;28;20050;-69
2022/12/03 01:02:01;;;;;;;32.05;13.38;;;;;;;;;;5112855;28;20019;-67
2022/12/03 01:04:27;;;;;;;34.80;16.73;;;;;;;;;;5112764;28;20026;-67
2022/12/03 01:06:52;;;;;;;37.58;16.13;;;;;;;;;;5096046;28;20063;-67
2022/12/03 01:09:18;;;;;;;27.98;12.02;;;;;;;;;;5108409;28;20439;-67
2022/12/03 01:11:43;;;;;;;33.67;14.25;;;;;;;;;;5100608;28;20080;-68
2022/12/03 01:14:14;;;;;;;34.53;16.05;;;;;;;;;;5101749;28;20020;-68
2022/12/03 01:16:40;;;;;;;28.40;12.38;;;;;;;;;;5092769;28;20114;-68
2022/12/03 01:19:07;;;;;;;31.00;13.82;;;;;;;;;;5092450;28;20020;-67
2022/12/03 01:21:33;;;;;;;33.45;13.80;;;;;;;;;;5109246;28;20027;-67
2022/12/03 01:23:58;;;;;;;32.63;14.57;;;;;;;;;;5092323;28;20032;-68
2022/12/03 01:26:24;;;;;;;27.02;12.23;;;;;;;;;;5107045;28;20036;-69
2022/12/03 01:28:51;;;;;;;27.20;12.40;;;;;;;;;;5112719;28;20496;-68
2022/12/03 01:34:00;;;;;;;31.27;13.50;;;;;;;;;;5109414;28;20031;-68
2022/12/03 01:36:25;;;;;;;21.48;10.65;;;;;;;;;;5109660;28;20044;-68
2022/12/03 01:38:51;;;;;;;27.55;12.10;;;;;;;;;;5109140;28;20096;-69
2022/12/03 01:41:18;;;;;;;22.63;11.57;;;;;;;;;;5111272;28;20526;-69
2022/12/03 01:43:44;;;;;;;32.45;14.43;;;;;;;;;;5111562;28;20020;-68
2022/12/03 01:46:18;;;;;;;30.77;13.45;;;;;;;;;;5111340;28;20471;-67
2022/12/03 01:48:44;;;;;;;32.30;14.70;;;;;;;;;;5107981;28;20032;-67
2022/12/03 01:51:11;;;;;;;21.40;10.18;;;;;;;;;;5101547;28;20031;-67
2022/12/03 01:53:37;;;;;;;33.85;14.98;;;;;;;;;;5106011;28;20024;-68
2022/12/03 01:56:03;;;;;;;33.97;16.50;;;;;;;;;;5110950;28;20024;-68
2022/12/03 01:58:28;;;;;;;23.38;11.63;;;;;;;;;;5110191;28;20097;-68
2022/12/03 02:00:58;;;;;;;30.50;14.55;;;;;;;;;;5100519;28;20051;-68
2022/12/03 02:03:24;;;;;;;36.75;15.30;;;;;;;;;;5110414;28;20019;-68
2022/12/03 02:05:51;;;;;;;29.90;13.82;;;;;;;;;;5110661;28;20020;-68
2022/12/03 02:08:26;;;;;;;23.90;12.20;;;;;;;;;;5110753;28;20028;-68
2022/12/03 02:10:52;;;;;;;34.70;15.18;;;;;;;;;;5106359;28;20028;-67
2022/12/03 02:13:17;;;;;;;11.73;6.45;;;;;;;;;;5110881;28;20466;-68
2022/12/03 02:15:43;;;;;;;19.67;9.18;;;;;;;;;;5109592;28;20019;-68
2022/12/03 02:18:09;;;;;;;26.98;12.20;;;;;;;;;;5109413;28;20080;-68
2022/12/03 02:21:01;;;;;;;28.02;13.30;;;;;;;;;;5110573;28;20106;-68
2022/12/03 02:24:04;;;;;;;30.20;12.35;;;;;;;;;;5048866;28;20060;-67
2022/12/03 02:26:30;;;;;;;31.73;14.50;;;;;;;;;;5038929;28;20049;-68
2022/12/03 02:28:56;;;;;;;42.88;18.52;;;;;;;;;;5049619;28;20044;-68
2022/12/03 02:31:22;;;;;;;31.08;14.05;;;;;;;;;;5049095;28;20090;-68
2022/12/03 02:33:48;;;;;;;22.30;11.02;;;;;;;;;;5049189;28;20039;-68
2022/12/03 02:36:13;;;;;;;29.30;13.05;;;;;;;;;;5048796;28;20041;-68
2022/12/03 02:38:40;;;;;;;25.98;11.75;;;;;;;;;;5050400;28;20111;-68
2022/12/03 02:41:09;;;;;;;20.42;9.57;;;;;;;;;;5050459;28;20029;-68
2022/12/03 02:43:35;;;;;;;34.72;14.45;;;;;;;;;;5050800;28;20466;-68
2022/12/03 02:46:02;;;;;;;20.58;10.57;;;;;;;;;;5050853;28;20052;-68
2022/12/03 02:48:32;;;;;;;28.80;13.07;;;;;;;;;;5050637;28;20083;-68
2022/12/03 02:51:01;;;;;;;37.13;16.70;;;;;;;;;;5050612;28;20028;-68
2022/12/03 02:53:30;;;;;;;32.40;14.27;;;;;;;;;;5050643;28;20033;-69
2022/12/03 02:56:00;;;;;;;37.53;18.50;;;;;;;;;;5050501;28;20128;-69
2022/12/03 02:58:28;;;;;;;25.97;12.63;;;;;;;;;;5050581;28;20072;-69
2022/12/03 03:00:54;;;;;;;33.47;15.35;;;;;;;;;;5094382;28;20044;-69
2022/12/03 03:03:22;;;;;;;31.88;11.75;;;;;;;;;;5113703;27;20100;-69
2022/12/03 03:05:49;;;;;;;25.25;10.98;;;;;;;;;;5113616;28;20041;-68
2022/12/03 03:08:15;;;;;;;31.88;14.75;;;;;;;;;;5113533;28;20016;-67
2022/12/03 03:10:42;;;;;;;30.33;13.38;;;;;;;;;;5113428;28;20554;-67
2022/12/03 03:13:11;;;;;;;21.33;8.07;;;;;;;;;;5113722;28;20076;-68
2022/12/03 03:15:39;;;;;;;30.63;14.95;;;;;;;;;;5113561;28;20027;-68
2022/12/03 03:18:06;;;;;;;29.95;12.55;;;;;;;;;;5113175;28;20023;-67
2022/12/03 03:20:31;;;;;;;33.63;13.77;;;;;;;;;;5113429;28;20035;-68
2022/12/03 03:23:18;;;;;;;29.08;14.07;;;;;;;;;;5113523;28;20080;-67
2022/12/03 03:25:48;;;;;;;24.65;11.68;;;;;;;;;;5113339;28;20034;-67
2022/12/03 03:28:18;;;;;;;18.15;8.75;;;;;;;;;;5113349;28;20035;-68
2022/12/03 03:30:44;;;;;;;23.40;10.32;;;;;;;;;;5112070;28;20494;-67
2022/12/03 03:33:11;;;;;;;24.35;11.45;;;;;;;;;;5113185;28;20080;-67
2022/12/03 03:35:38;;;;;;;34.38;14.38;;;;;;;;;;5113142;28;20130;-67
2022/12/03 03:38:04;;;;;;;39.65;16.30;;;;;;;;;;5113517;28;20028;-67
2022/12/03 03:40:29;;;;;;;32.63;14.35;;;;;;;;;;5113597;28;20106;-68
2022/12/03 03:42:56;;;;;;;30.67;12.75;;;;;;;;;;5113832;28;20103;-68
2022/12/03 03:45:22;;;;;;;31.00;14.32;;;;;;;;;;5113691;28;20473;-68
2022/12/03 03:47:48;;;;;;;23.88;10.30;;;;;;;;;;5111937;28;20031;-68
2022/12/03 03:50:14;;;;;;;18.55;9.82;;;;;;;;;;5113332;28;20024;-68
2022/12/03 03:52:41;;;;;;;32.85;13.05;;;;;;;;;;5113762;27;20035;-68
2022/12/03 03:55:09;;;;;;;31.42;14.15;;;;;;;;;;5114038;28;20031;-68
2022/12/03 03:57:34;;;;;;;34.85;13.60;;;;;;;;;;5113571;28;20028;-68
2022/12/03 04:00:00;;;;;;;35.65;15.38;;;;;;;;;;5113414;28;20027;-68
2022/12/03 04:02:26;;;;;;;34.10;16.00;;;;;;;;;;5113079;28;20474;-69
2022/12/03 04:04:53;;;;;;;39.28;18.48;;;;;;;;;;5113651;28;20479;-68
2022/12/03 04:07:18;;;;;;;37.33;16.67;;;;;;;;;;5113572;28;20431;-68
2022/12/03 04:09:44;;;;;;;33.40;14.93;;;;;;;;;;5113353;28;20059;-68
2022/12/03 04:14:57;;;;;;;42.08;19.42;;;;;;;;;;5113712;28;20605;-68
2022/12/03 04:17:22;;;;;;;32.83;14.45;;;;;;;;;;5113326;28;20023;-68
2022/12/03 04:19:48;;;;;;;39.72;17.63;;;;;;;;;;5113313;28;20027;-68
2022/12/03 04:30:26;;;;;;;31.45;13.63;;;;;;;;;;5113067;28;20558;-68
2022/12/03 04:35:41;;;;;;;37.55;15.80;;;;;;;;;;5112705;28;20095;-68
2022/12/03 04:38:07;;;;;;;27.33;13.02;;;;;;;;;;5113189;28;20027;-68
2022/12/03 04:43:17;;;;;;;42.75;17.80;;;;;;;;;;5110005;28;20070;-68
2022/12/03 04:45:42;;;;;;;36.60;14.55;;;;;;;;;;5111889;28;20044;-68
2022/12/03 04:48:08;;;;;;;34.17;13.45;;;;;;;;;;5099992;28;20027;-67
2022/12/03 04:50:33;;;;;;;30.17;12.70;;;;;;;;;;5111661;28;20028;-67
2022/12/03 04:52:59;;;;;;;31.98;14.48;;;;;;;;;;5107129;28;20016;-67
2022/12/03 04:55:24;;;;;;;24.92;13.52;;;;;;;;;;5102022;28;20024;-67
2022/12/03 04:57:50;;;;;;;32.95;13.65;;;;;;;;;;5099464;28;20439;-67
2022/12/03 05:00:15;;;;;;;36.85;16.83;;;;;;;;;;5108527;28;20028;-68
2022/12/03 05:02:41;;;;;;;41.90;13.73;;;;;;;;;;5104112;28;20028;-68
2022/12/03 05:05:07;;;;;;;30.30;14.43;;;;;;;;;;5101083;28;20032;-68
2022/12/03 05:07:32;;;;;;;34.38;16.40;;;;;;;;;;5112511;28;20185;-68
2022/12/03 05:09:58;;;;;;;33.25;13.73;;;;;;;;;;5112390;28;20485;-67
2022/12/03 05:12:23;;;;;;;45.70;16.35;;;;;;;;;;5111719;28;20037;-69
2022/12/03 05:14:49;;;;;;;27.85;12.23;;;;;;;;;;5110397;28;20023;-68
2022/12/03 05:17:14;;;;;;;17.58;9.80;;;;;;;;;;5110823;28;20509;-68
2022/12/03 05:22:23;;;;;;;27.42;12.18;;;;;;;;;;5110202;28;20115;-68
2022/12/03 05:24:49;;;;;;;29.70;13.23;;;;;;;;;;5110497;28;20107;-68
2022/12/03 05:27:14;;;;;;;36.35;15.63;;;;;;;;;;5111084;28;20466;-68
2022/12/03 05:29:40;;;;;;;33.17;14.23;;;;;;;;;;5110344;28;20126;-68
2022/12/03 05:32:05;;;;;;;19.58;8.65;;;;;;;;;;5109221;28;20026;-68
2022/12/03 05:34:31;;;;;;;22.58;11.88;;;;;;;;;;5109198;28;20482;-68
2022/12/03 05:36:56;;;;;;;25.23;10.88;;;;;;;;;;5109852;28;20032;-68
2022/12/03 05:39:21;;;;;;;20.73;10.82;;;;;;;;;;5108646;28;20027;-68
2022/12/03 05:44:31;;;;;;;32.70;13.25;;;;;;;;;;5109488;28;20042;-68
2022/12/03 05:46:56;;;;;;;23.95;12.27;;;;;;;;;;5111022;28;20459;-68
2022/12/03 05:49:22;;;;;;;45.92;18.30;;;;;;;;;;5110913;28;20078;-68
2022/12/03 05:51:47;;;;;;;42.50;17.63;;;;;;;;;;5110887;28;20542;-68
2022/12/03 05:54:13;;;;;;;52.53;18.50;;;;;;;;;;5110868;28;20015;-68
2022/12/03 05:56:38;;;;;;;31.75;14.00;;;;;;;;;;5111015;28;20034;-68
2022/12/03 05:59:03;;;;;;;15.20;8.07;;;;;;;;;;5110806;28;20099;-68
2022/12/03 06:01:29;;;;;;;34.97;15.70;;;;;;;;;;5111072;28;20031;-68
2022/12/03 06:03:54;;;;;;;39.03;18.58;;;;;;;;;;5111315;28;20493;-68
2022/12/03 06:06:20;;;;;;;36.25;15.55;;;;;;;;;;5111039;28;20445;-68
2022/12/03 06:08:45;;;;;;;40.10;18.40;;;;;;;;;;5111045;28;20036;-68
2022/12/03 06:11:11;;;;;;;44.05;18.27;;;;;;;;;;5110007;28;20112;-68
2022/12/03 06:13:36;;;;;;;23.88;11.45;;;;;;;;;;5112437;28;20011;-68
2022/12/03 06:16:02;;;;;;;19.42;9.98;;;;;;;;;;5115107;28;20032;-68
2022/12/03 06:18:27;;;;;;;28.63;14.05;;;;;;;;;;5115270;28;20023;-68
2022/12/03 06:20:53;;;;;;;16.70;9.80;;;;;;;;;;5115769;28;20026;-68
2022/12/03 06:23:18;;;;;;;32.28;16.88;;;;;;;;;;5115668;28;20138;-68
2022/12/03 06:25:43;;;;;;;21.40;11.55;;;;;;;;;;5113585;28;20024;-68
2022/12/03 06:28:09;;;;;;;25.75;14.32;;;;;;;;;;5113837;28;20107;-68
2022/12/03 06:30:34;;;;;;;40.95;16.17;;;;;;;;;;5115275;28;20485;-68
2022/12/03 06:33:00;;;;;;;59.75;22.02;;;;;;;;;;5115209;28;20023;-68
2022/12/03 06:35:26;;;;;;;43.90;17.35;;;;;;;;;;5115081;28;20051;-69
2022/12/03 06:37:51;;;;;;;38.15;18.20;;;;;;;;;;5115154;28;20024;-68
2022/12/03 06:40:17;;;;;;;56.40;23.88;;;;;;;;;;5115185;28;20031;-68
2022/12/03 06:42:43;;;;;;;50.20;21.63;;;;;;;;;;5115131;28;20478;-68
2022/12/03 06:45:08;;;;;;;17.88;9.38;;;;;;;;;;5115233;28;20028;-68
2022/12/03 06:47:34;;;;;;;45.08;18.92;;;;;;;;;;5115124;28;20020;-68
2022/12/03 06:49:59;;;;;;;52.78;24.75;;;;;;;;;;5115013;28;20035;-68
2022/12/03 06:52:25;;;;;;;42.78;19.63;;;;;;;;;;5115050;28;20071;-68
2022/12/03 06:54:50;;;;;;;39.88;16.80;;;;;;;;;;5114822;28;20110;-68
2022/12/03 06:57:16;;;;;;;53.10;21.27;;;;;;;;;;5113313;28;20035;-68
2022/12/03 06:59:41;;;;;;;38.92;16.35;;;;;;;;;;5114790;28;20428;-68
2022/12/03 07:02:07;;;;;;;26.60;14.70;;;;;;;;;;5115100;28;20028;-68
2022/12/03 07:04:32;;;;;;;26.08;13.13;;;;;;;;;;5114507;28;20024;-68
2022/12/03 07:06:58;;;;;;;46.15;18.10;;;;;;;;;;5113535;28;20478;-68
2022/12/03 07:09:23;;;;;;;52.78;23.08;;;;;;;;;;5114677;28;20043;-68
2022/12/03 07:11:49;;;;;;;31.27;13.38;;;;;;;;;;5112912;28;20364;-68
2022/12/03 07:14:14;;;;;;;26.52;14.30;;;;;;;;;;5114253;28;20031;-69
2022/12/03 07:16:42;;;;;;;27.40;14.13;;;;;;;;;;5114567;28;20028;-68
2022/12/03 07:19:07;;;;;;;41.60;17.70;;;;;;;;;;5114436;28;20034;-69
2022/12/03 07:21:33;;;;;;;14.52;8.80;;;;;;;;;;5114597;28;20378;-68
2022/12/03 07:23:58;;;;;;;46.95;20.83;;;;;;;;;;5113804;28;20024;-68
2022/12/03 07:26:24;;;;;;;53.28;22.90;;;;;;;;;;5114351;28;20036;-68
2022/12/03 07:28:49;;;;;;;64.43;29.30;;;;;;;;;;5114241;28;20066;-68
2022/12/03 07:31:15;;;;;;;55.83;23.92;;;;;;;;;;5114234;28;20028;-68
2022/12/03 07:33:40;;;;;;;51.13;24.45;;;;;;;;;;5114284;28;20054;-68
2022/12/03 07:36:06;;;;;;;56.97;24.10;;;;;;;;;;5114146;28;20543;-69
2022/12/03 07:38:31;;;;;;;59.05;24.48;;;;;;;;;;5114415;28;20106;-68
2022/12/03 07:40:57;;;;;;;49.60;21.90;;;;;;;;;;5114321;28;20335;-69
2022/12/03 07:43:22;;;;;;;58.33;24.83;;;;;;;;;;5114395;28;20024;-69
2022/12/03 07:45:48;;;;;;;63.00;28.75;;;;;;;;;;5114267;28;20023;-69
2022/12/03 07:48:13;;;;;;;57.55;24.52;;;;;;;;;;5114422;28;20531;-68
2022/12/03 07:50:39;;;;;;;52.55;21.83;;;;;;;;;;5113990;28;20028;-68
2022/12/03 07:53:04;;;;;;;56.80;25.30;;;;;;;;;;5114475;28;20458;-68
2022/12/03 07:55:30;;;;;;;43.33;19.95;;;;;;;;;;5113707;28;20051;-68
2022/12/03 07:57:55;;;;;;;67.95;28.23;;;;;;;;;;5113877;28;20051;-69
2022/12/03 08:00:21;;;;;;;58.63;22.35;;;;;;;;;;5113789;28;20027;-69
2022/12/03 08:02:46;;;;;;;43.95;18.48;;;;;;;;;;5113970;28;20031;-69
2022/12/03 08:05:12;;;;;;;70.22;27.83;;;;;;;;;;5113471;28;20037;-69
2022/12/03 08:07:37;;;;;;;72.47;26.52;;;;;;;;;;5113886;28;20102;-69
2022/12/03 08:10:04;;;;;;;66.82;28.15;;;;;;;;;;5113739;28;20028;-68
2022/12/03 08:12:41;;;;;;;71.25;29.48;;;;;;;;;;5113871;28;20443;-69
2022/12/03 08:15:13;;;;;;;62.35;25.40;;;;;;;;;;5113584;28;20107;-68
2022/12/03 08:17:41;;;;;;;56.22;21.88;;;;;;;;;;5113602;28;20500;-69
2022/12/03 08:20:16;;;;;;;46.10;19.67;;;;;;;;;;5113817;28;20031;-68
2022/12/03 08:22:44;;;;;;;49.97;20.90;;;;;;;;;;5113433;27;20055;-68
2022/12/03 08:25:16;;;;;;;63.08;30.15;;;;;;;;;;5113340;28;20032;-69
2022/12/03 08:27:41;;;;;;;51.40;24.65;;;;;;;;;;5113474;28;20024;-69
2022/12/03 08:30:10;;;;;;;56.60;23.95;;;;;;;;;;5112389;28;20569;-69
2022/12/03 08:32:35;;;;;;;73.28;28.05;;;;;;;;;;5113937;28;20063;-69
2022/12/03 08:35:01;;;;;;;48.70;22.63;;;;;;;;;;5113399;28;20473;-69
2022/12/03 08:37:28;;;;;;;52.75;21.55;;;;;;;;;;5111979;28;20031;-69
2022/12/03 08:39:54;;;;;;;44.00;20.52;;;;;;;;;;5112292;28;20023;-69
2022/12/03 08:42:40;;;;;;;54.25;20.85;;;;;;;;;;5050710;28;20515;-69
2022/12/03 08:45:38;;;;;;;57.67;22.50;;;;;;;;;;5050521;28;20083;-69
2022/12/03 08:48:04;;;;;;;70.15;25.77;;;;;;;;;;5050588;28;20040;-69
2022/12/03 08:50:32;;;;;;;33.58;14.35;;;;;;;;;;5050018;28;20484;-69
2022/12/03 08:53:13;;;;;;;48.90;21.08;;;;;;;;;;5050352;28;20033;-69
2022/12/03 08:55:45;;;;;;;61.78;24.40;;;;;;;;;;5050324;28;20056;-69
2022/12/03 08:58:21;;;;;;;30.33;14.98;;;;;;;;;;5049711;28;20040;-69
2022/12/03 09:00:52;;;;;;;68.28;29.33;;;;;;;;;;5050323;28;20098;-69
2022/12/03 09:03:18;;;;;;;33.78;15.85;;;;;;;;;;5050056;28;20113;-69
2022/12/03 09:05:43;;;;;;;32.92;16.30;;;;;;;;;;5049927;28;20051;-69
2022/12/03 09:08:09;;;;;;;39.13;18.65;;;;;;;;;;5050163;28;20044;-68
2022/12/03 09:10:35;;;;;;;29.67;18.10;;;;;;;;;;5049916;28;20108;-69
2022/12/03 09:13:00;;;;;;;47.70;19.02;;;;;;;;;;5050198;28;20052;-69
2022/12/03 09:15:27;;;;;;;53.63;21.92;;;;;;;;;;5049837;28;20063;-69
2022/12/03 09:17:53;;;;;;;24.98;12.82;;;;;;;;;;5050368;28;20035;-69
2022/12/03 09:20:18;;;;;;;41.88;19.20;;;;;;;;;;5095765;28;20039;-69
2022/12/03 09:22:44;;;;;;;43.08;22.98;;;;;;;;;;5112606;28;20107;-68
2022/12/03 09:25:10;;;;;;;33.92;17.55;;;;;;;;;;5112894;28;20032;-69
2022/12/03 09:27:35;;;;;;;21.48;12.05;;;;;;;;;;5112776;28;20466;-69
2022/12/03 09:30:01;;;;;;;51.33;24.25;;;;;;;;;;5112741;28;20066;-69
2022/12/03 09:32:27;;;;;;;37.13;16.38;;;;;;;;;;5112715;28;20047;-69
2022/12/03 09:34:52;;;;;;;24.88;13.23;;;;;;;;;;5112195;28;20046;-69
2022/12/03 09:37:18;;;;;;;49.03;17.30;;;;;;;;;;5112451;28;20035;-69
2022/12/03 09:39:43;;;;;;;33.13;16.65;;;;;;;;;;5112586;28;20493;-69
2022/12/03 09:42:10;;;;;;;40.78;20.17;;;;;;;;;;5112107;28;20028;-69
2022/12/03 09:44:36;;;;;;;61.92;28.05;;;;;;;;;;5112595;28;20128;-69
2022/12/03 09:47:03;;;;;;;59.90;22.75;;;;;;;;;;5111040;28;20143;-69
2022/12/03 09:49:31;;;;;;;45.42;21.85;;;;;;;;;;5116205;27;20072;-69
2022/12/03 09:51:59;;;;;;;57.42;25.17;;;;;;;;;;5116140;28;20034;-69
2022/12/03 09:54:27;;;;;;;62.47;27.52;;;;;;;;;;5116665;28;20028;-69
2022/12/03 09:56:54;;;;;;;52.03;22.75;;;;;;;;;;5116512;28;20478;-70
2022/12/03 09:59:21;;;;;;;54.10;23.60;;;;;;;;;;5116160;28;20027;-69
2022/12/03 10:01:47;;;;;;;69.90;32.10;;;;;;;;;;5116542;28;20020;-69
2022/12/03 10:04:12;;;;;;;64.40;25.65;;;;;;;;;;5116181;28;20023;-69
2022/12/03 10:06:39;;;;;;;70.00;28.92;;;;;;;;;;5116442;28;20035;-69
2022/12/03 10:09:05;;;;;;;52.22;21.48;;;;;;;;;;5116402;28;20106;-69
2022/12/03 10:11:33;;;;;;;74.22;30.00;;;;;;;;;;5116551;28;20023;-68
2022/12/03 10:13:59;;;;;;;63.65;26.50;;;;;;;;;;5116277;28;20020;-69
2022/12/03 10:16:25;;;;;;;65.63;27.20;;;;;;;;;;5116341;28;20027;-69
2022/12/03 10:18:54;;;;;;;63.22;30.70;;;;;;;;;;5115663;28;20118;-68
2022/12/03 10:21:35;;;;;;;55.65;22.13;;;;;;;;;;5116105;28;20026;-68
2022/12/03 10:24:15;;;;;;;50.63;16.38;;;;;;;;;;5115885;28;20382;-69
2022/12/03 10:26:41;;;;;;;57.58;21.92;;;;;;;;;;5115628;28;20024;-69
2022/12/03 10:29:22;;;;;;;32.90;14.88;;;;;;;;;;5116248;28;20059;-69
2022/12/03 10:31:56;;;;;;;39.58;17.17;;;;;;;;;;5116272;28;20088;-69
2022/12/03 10:34:33;;;;;;;55.10;22.83;;;;;;;;;;5115398;28;20020;-69
2022/12/03 10:37:09;;;;;;;28.83;13.30;;;;;;;;;;5115717;28;20396;-69
2022/12/03 10:39:52;;;;;;;46.92;20.83;;;;;;;;;;5115875;28;20028;-69
2022/12/03 10:42:18;;;;;;;22.27;13.13;;;;;;;;;;5115845;28;20031;-69
2022/12/03 10:44:44;;;;;;;41.63;18.33;;;;;;;;;;5115796;28;20474;-69
2022/12/03 10:47:11;;;;;;;36.42;13.18;;;;;;;;;;5115675;28;20073;-70
2022/12/03 10:49:37;;;;;;;57.50;22.48;;;;;;;;;;5115734;28;20059;-69
2022/12/03 10:52:04;;;;;;;59.42;25.20;;;;;;;;;;5115939;27;20015;-69
2022/12/03 10:54:32;;;;;;;53.55;22.77;;;;;;;;;;5115657;28;20024;-69
2022/12/03 10:56:58;;;;;;;45.70;19.67;;;;;;;;;;5115294;28;20019;-69
2022/12/03 10:59:31;;;;;;;55.50;22.73;;;;;;;;;;5114465;28;20089;-69
2022/12/03 11:01:57;;;;;;;44.40;19.27;;;;;;;;;;5115439;28;20063;-69
2022/12/03 11:04:30;;;;;;;46.92;22.27;;;;;;;;;;5114933;28;20054;-69
2022/12/03 11:06:56;;;;;;;41.50;19.15;;;;;;;;;;5115140;28;20063;-69
2022/12/03 11:09:26;;;;;;;40.33;17.77;;;;;;;;;;5115429;28;20062;-69
2022/12/03 11:11:52;;;;;;;67.25;26.30;;;;;;;;;;5115447;28;20070;-69
2022/12/03 11:14:53;;;;;;;62.22;23.88;;;;;;;;;;5115391;28;20020;-69
2022/12/03 11:17:24;;;;;;;40.00;17.95;;;;;;;;;;5114630;28;20019;-69
2022/12/03 11:19:51;;;;;;;48.78;22.30;;;;;;;;;;5115192;28;20041;-69
2022/12/03 11:22:25;;;;;;;41.47;20.08;;;;;;;;;;5115047;28;20023;-69
2022/12/03 11:25:26;;;;;;;45.75;19.95;;;;;;;;;;5114921;28;20394;-69
2022/12/03 11:28:10;;;;;;;45.13;19.77;;;;;;;;;;5111267;28;20038;-69
2022/12/03 11:30:57;;;;;;;42.65;17.60;;;;;;;;;;5114767;28;20032;-69
2022/12/03 11:33:23;;;;;;;27.67;15.35;;;;;;;;;;5113488;28;20474;-69
2022/12/03 11:36:06;;;;;;;17.83;9.80;;;;;;;;;;5114266;28;20055;-69
2022/12/03 11:38:54;;;;;;;35.42;16.45;;;;;;;;;;5114332;28;20474;-69
2022/12/03 11:41:24;;;;;;;45.17;19.73;;;;;;;;;;5114721;28;20031;-69
2022/12/03 11:43:55;;;;;;;47.15;19.77;;;;;;;;;;5114479;28;20541;-69
2022/12/03 11:46:29;;;;;;;40.28;18.13;;;;;;;;;;5114313;28;20051;-69
2022/12/03 11:48:58;;;;;;;28.30;15.95;;;;;;;;;;5114607;28;20359;-69
2022/12/03 11:51:26;;;;;;;51.63;23.55;;;;;;;;;;5114352;28;20020;-70
2022/12/03 11:53:55;;;;;;;38.90;17.42;;;;;;;;;;5114513;28;20028;-69
2022/12/03 11:56:26;;;;;;;39.40;16.40;;;;;;;;;;5114117;28;20104;-70
2022/12/03 11:59:01;;;;;;;32.90;15.20;;;;;;;;;;5114488;28;20030;-69
2022/12/03 12:01:37;;;;;;;46.60;20.95;;;;;;;;;;5113752;28;20058;-69
2022/12/03 12:04:03;;;;;;;41.85;20.80;;;;;;;;;;5113726;28;20047;-69
2022/12/03 12:06:40;;;;;;;49.03;21.05;;;;;;;;;;5114247;28;20027;-69
2022/12/03 12:09:06;;;;;;;33.35;15.32;;;;;;;;;;5114075;28;20024;-69
2022/12/03 12:11:34;;;;;;;48.35;22.20;;;;;;;;;;5114148;28;20031;-67
2022/12/03 12:14:04;;;;;;;41.53;19.75;;;;;;;;;;5113595;28;20045;-68
2022/12/03 12:16:35;;;;;;;59.00;25.58;;;;;;;;;;5113855;28;20122;-68
2022/12/03 12:19:32;;;;;;;35.45;16.35;;;;;;;;;;5113723;28;20027;-68
2022/12/03 12:22:32;;;;;;;50.85;21.58;;;;;;;;;;5113567;28;20501;-68
2022/12/03 12:24:59;;;;;;;;;;;;;;;;;;5113855;28;20028;-69
2022/12/03 12:27:30;;;;;;;61.92;22.95;;;;;;;;;;5113287;28;19956;-69
2022/12/03 12:30:17;;;;;;;41.40;18.45;;;;;;;;;;5112612;28;20036;-69
2022/12/03 12:32:49;;;;;;;48.20;18.48;;;;;;;;;;5113091;28;20498;-68
2022/12/03 12:35:20;;;;;;;51.13;19.25;;;;;;;;;;5113008;28;20123;-68
2022/12/03 12:37:52;;;;;;;32.85;14.95;;;;;;;;;;5113233;28;20059;-68
2022/12/03 12:40:20;;;;;;;50.95;20.65;;;;;;;;;;5113332;28;20024;-69
2022/12/03 12:42:58;;;;;;;55.38;22.77;;;;;;;;;;5113483;28;20043;-69
2022/12/03 12:45:26;;;;;;;51.10;22.73;;;;;;;;;;5113103;28;20526;-68
2022/12/03 12:48:24;;;;;;;53.45;22.42;;;;;;;;;;5113350;28;20457;-68
2022/12/03 12:51:00;;;;;;;48.20;21.63;;;;;;;;;;5112911;28;20023;-68
2022/12/03 12:53:29;;;;;;;53.97;22.60;;;;;;;;;;5113209;28;20030;-68
2022/12/03 12:56:00;;;;;;;47.88;17.83;;;;;;;;;;5112867;28;20028;-68
2022/12/03 12:58:30;;;;;;;41.85;18.25;;;;;;;;;;5112955;28;20031;-68
2022/12/03 13:00:59;;;;;;;52.67;23.27;;;;;;;;;;5113370;28;20020;-68
2022/12/03 13:03:31;;;;;;;49.45;20.48;;;;;;;;;;5112927;28;20026;-69
2022/12/03 13:05:56;;;;;;;61.40;24.25;;;;;;;;;;5113100;28;20024;-68
2022/12/03 13:08:36;;;;;;;64.55;23.92;;;;;;;;;;5112977;28;20536;-68
2022/12/03 13:11:02;;;;;;;61.22;27.00;;;;;;;;;;5112817;28;20034;-69
2022/12/03 13:13:38;;;;;;;57.53;25.13;;;;;;;;;;5112615;28;20023;-69
2022/12/03 13:16:10;;;;;;;65.32;27.17;;;;;;;;;;5112742;28;20023;-68
2022/12/03 13:18:45;;;;;;;55.45;22.77;;;;;;;;;;5112715;28;20467;-69
2022/12/03 13:21:31;;;;;;;59.10;25.48;;;;;;;;;;5112932;28;20032;-69
2022/12/03 13:23:56;;;;;;;61.30;24.27;;;;;;;;;;5111891;28;20071;-69
2022/12/03 13:26:39;;;;;;;66.95;26.17;;;;;;;;;;5112360;28;20078;-69
2022/12/03 13:29:25;;;;;;;63.38;26.83;;;;;;;;;;5112536;28;20377;-69
2022/12/03 13:32:09;;;;;;;58.97;24.30;;;;;;;;;;5112179;28;20027;-68
2022/12/03 13:34:35;;;;;;;58.08;24.33;;;;;;;;;;5112205;28;20024;-69
2022/12/03 13:37:01;;;;;;;80.13;33.53;;;;;;;;;;5111276;28;20081;-68
2022/12/03 13:39:31;;;;;;;63.58;25.63;;;;;;;;;;5112643;28;20393;-69
2022/12/03 13:44:49;;;;;;;63.40;25.17;;;;;;;;;;5112721;28;20039;-69
2022/12/03 13:47:19;;;;;;;48.47;19.42;;;;;;;;;;5112627;28;20072;-69
2022/12/03 13:49:50;;;;;;;71.03;31.35;;;;;;;;;;5112556;28;20390;-69
2022/12/03 13:52:19;;;;;;;51.92;21.35;;;;;;;;;;5112700;28;20378;-69
2022/12/03 13:54:45;;;;;;;52.13;22.20;;;;;;;;;;5112784;28;20390;-69
2022/12/03 13:57:10;;;;;;;58.00;25.58;;;;;;;;;;5112357;28;20023;-69
2022/12/03 13:59:36;;;;;;;49.20;21.15;;;;;;;;;;5111146;28;20373;-69
2022/12/03 14:02:01;;;;;;;53.58;24.85;;;;;;;;;;5112591;28;20039;-69
2022/12/03 14:04:27;;;;;;;58.58;26.00;;;;;;;;;;5112561;28;20046;-69
2022/12/03 14:06:52;;;;;;;40.75;18.77;;;;;;;;;;5112617;28;20080;-69
2022/12/03 14:09:18;;;;;;;58.60;25.30;;;;;;;;;;5112091;28;20028;-69
2022/12/03 14:14:27;;;;;;;48.70;23.67;;;;;;;;;;5112318;28;20046;-69
2022/12/03 14:16:53;;;;;;;56.70;24.95;;;;;;;;;;5112226;28;20020;-69
2022/12/03 14:19:18;;;;;;;60.50;23.83;;;;;;;;;;5112372;28;20035;-69
2022/12/03 14:21:43;;;;;;;57.78;24.08;;;;;;;;;;5112130;28;20076;-69
2022/12/03 14:24:09;;;;;;;40.83;18.63;;;;;;;;;;5112336;28;20394;-70
2022/12/03 14:26:34;;;;;;;42.47;18.75;;;;;;;;;;5112153;28;20488;-69
2022/12/03 14:29:00;;;;;;;47.65;22.05;;;;;;;;;;5112160;28;20111;-69
2022/12/03 14:31:25;;;;;;;60.78;25.38;;;;;;;;;;5112403;28;20367;-69
2022/12/03 14:33:51;;;;;;;60.65;25.45;;;;;;;;;;5112256;28;20026;-70
2022/12/03 14:36:16;;;;;;;51.65;22.90;;;;;;;;;;5114582;28;20050;-70
2022/12/03 14:38:42;;;;;;;57.70;24.90;;;;;;;;;;5115709;28;20016;-70
2022/12/03 14:42:11;;;;;;;45.17;21.77;;;;;;;;;;5114276;28;20024;-69
2022/12/03 14:43:52;;;;;;;54.03;22.92;;;;;;;;;;5115438;28;20463;-69
2022/12/03 14:46:18;;;;;;;52.47;21.20;;;;;;;;;;5115160;28;20023;-69
2022/12/03 14:48:44;;;;;;;35.05;14.93;;;;;;;;;;5115914;28;20024;-69
2022/12/03 14:51:09;;;;;;;73.35;25.52;;;;;;;;;;5115963;28;20486;-69
2022/12/03 14:53:35;;;;;;;57.83;22.00;;;;;;;;;;5115788;28;20027;-68
2022/12/03 14:56:00;;;;;;;67.85;30.38;;;;;;;;;;5115382;28;20478;-68